Terminal Aerodrome Forecast
Issued by NWS

Home | Current Version | Previous Version | Text Only | Print | Product List | Glossary On
Versions: 1 2 3 4 5 6 7 8 9 10 11 12
000
FTUS44 KSJT 191132
TAFBBD
TAF
KBBD 191132Z 1912/2012 14006KT 5SM BR OVC012
     FM192000 17007KT P6SM VCSH SCT025 BKN035
     FM200100 VRB04KT P6SM VCTS BKN030CB
      TEMPO 2002/2004 3SM TSRA OVC010CB
     FM200500 VRB04KT P6SM BKN040
      AMD NOT SKED=

USA.gov is the U.S. government's official web portal to all federal, state and local government web resources and services.